Time;durP1;ratioP1;P1;durP2;ratioP2;P2;SDS_P1;SDS_P2;PMS_P1;PMS_P2;Temp;Humidity;BMP_temperature;BMP_pressure;BME280_temperature;BME280_humidity;BME280_pressure;Samples;Min_cycle;Max_cycle;Signal;HPM_P1;HPM_P2
2021/10/04 00:01:05;;;;;;;1.60;1.10;;;12.90;99.90;;;;;;5024657;28;20180;-59
2021/10/04 00:03:31;;;;;;;1.13;1.03;;;12.90;99.90;;;;;;5007993;28;20462;-59
2021/10/04 00:05:57;;;;;;;1.07;0.97;;;12.90;99.90;;;;;;5027569;28;20461;-59
2021/10/04 00:08:22;;;;;;;1.30;1.00;;;12.90;99.90;;;;;;5004735;28;20193;-60
2021/10/04 00:10:49;;;;;;;1.30;1.20;;;12.90;99.90;;;;;;5002710;28;20185;-59
2021/10/04 00:13:15;;;;;;;1.20;1.10;;;12.90;99.90;;;;;;5002622;28;20294;-59
2021/10/04 00:15:41;;;;;;;1.17;1.10;;;12.90;99.90;;;;;;5012851;28;20510;-59
2021/10/04 00:18:06;;;;;;;1.77;1.20;;;12.90;99.90;;;;;;5008472;28;20520;-59
2021/10/04 00:20:33;;;;;;;2.20;1.20;;;12.90;99.90;;;;;;5005483;28;20696;-59
2021/10/04 00:22:59;;;;;;;1.40;1.30;;;12.90;99.90;;;;;;5009218;28;20438;-58
2021/10/04 00:25:25;;;;;;;1.20;1.10;;;12.80;99.90;;;;;;5013180;28;20465;-57
2021/10/04 00:27:51;;;;;;;1.60;1.50;;;12.80;99.90;;;;;;5010357;28;20457;-59
2021/10/04 00:30:18;;;;;;;1.80;1.20;;;12.80;99.90;;;;;;5010101;28;20466;-58
2021/10/04 00:32:47;;;;;;;3.17;1.40;;;12.80;99.90;;;;;;5013306;28;20200;-59
2021/10/04 00:35:16;;;;;;;1.50;1.40;;;12.80;99.90;;;;;;5013351;28;20461;-59
2021/10/04 00:37:42;;;;;;;2.37;1.10;;;12.80;99.90;;;;;;4999879;28;20749;-61
2021/10/04 00:40:12;;;;;;;1.17;1.07;;;12.80;99.90;;;;;;5010926;28;20445;-59
2021/10/04 00:42:39;;;;;;;2.03;1.20;;;12.80;99.90;;;;;;5030434;28;20445;-59
2021/10/04 00:45:06;;;;;;;1.10;1.00;;;12.80;99.90;;;;;;5012871;28;20439;-59
2021/10/04 00:47:32;;;;;;;1.00;1.00;;;12.80;99.90;;;;;;4993878;28;20487;-58
2021/10/04 00:49:58;;;;;;;1.37;1.10;;;12.80;99.90;;;;;;5011750;28;20502;-59
2021/10/04 00:52:23;;;;;;;1.30;1.17;;;12.80;99.90;;;;;;5012617;28;20459;-59
2021/10/04 00:54:50;;;;;;;1.10;1.10;;;12.80;99.90;;;;;;5020230;28;20184;-59
2021/10/04 00:57:16;;;;;;;1.10;1.10;;;12.80;99.90;;;;;;5018972;28;20263;-59
2021/10/04 00:59:42;;;;;;;1.10;1.00;;;12.80;99.90;;;;;;5012859;28;20875;-58
2021/10/04 01:02:08;;;;;;;1.30;1.20;;;12.80;99.90;;;;;;5008071;28;20815;-59
2021/10/04 01:04:34;;;;;;;1.37;1.10;;;12.80;99.90;;;;;;5012411;28;20424;-59
2021/10/04 01:07:00;;;;;;;2.67;1.00;;;12.80;99.90;;;;;;4998739;28;20426;-59
2021/10/04 01:09:27;;;;;;;7.77;1.60;;;12.80;99.90;;;;;;5009716;28;20220;-59
2021/10/04 01:11:55;;;;;;;1.00;1.00;;;12.80;99.90;;;;;;4996999;28;20178;-58
2021/10/04 01:14:21;;;;;;;1.57;1.30;;;12.80;99.90;;;;;;5001684;28;20420;-59
2021/10/04 01:16:47;;;;;;;1.30;1.20;;;12.80;99.90;;;;;;5007803;28;20939;-58
2021/10/04 01:19:13;;;;;;;1.30;1.20;;;12.80;99.90;;;;;;5012548;28;20495;-59
2021/10/04 01:21:39;;;;;;;1.20;1.10;;;12.80;99.90;;;;;;5009227;28;20522;-59
2021/10/04 01:24:08;;;;;;;1.20;1.10;;;12.70;99.90;;;;;;5011873;28;20549;-60
2021/10/04 01:26:34;;;;;;;1.30;1.20;;;12.70;99.90;;;;;;5008917;28;20838;-60
2021/10/04 01:29:00;;;;;;;1.23;1.23;;;12.70;99.90;;;;;;5010379;28;20443;-60
2021/10/04 01:31:26;;;;;;;1.60;1.50;;;12.70;99.90;;;;;;5004551;28;20192;-60
2021/10/04 01:33:54;;;;;;;1.30;1.13;;;12.70;99.90;;;;;;5006151;28;20200;-58
2021/10/04 01:36:24;;;;;;;1.00;1.00;;;12.70;99.90;;;;;;5023157;28;20418;-60
2021/10/04 01:38:50;;;;;;;1.13;1.10;;;12.70;99.90;;;;;;5013285;28;20606;-59
2021/10/04 01:41:16;;;;;;;1.27;1.00;;;12.60;99.90;;;;;;5006434;28;20526;-60
2021/10/04 01:43:42;;;;;;;1.20;1.10;;;12.60;99.90;;;;;;5006258;28;20185;-60
2021/10/04 01:46:07;;;;;;;2.53;1.13;;;12.60;99.90;;;;;;5005323;28;20831;-59
2021/10/04 01:48:33;;;;;;;1.20;1.10;;;12.60;99.90;;;;;;5009886;28;20200;-59
2021/10/04 01:50:59;;;;;;;0.97;0.90;;;12.50;99.90;;;;;;5007592;28;20188;-59
2021/10/04 01:53:25;;;;;;;0.90;0.90;;;12.50;99.90;;;;;;5011513;28;20197;-60
2021/10/04 01:55:50;;;;;;;0.80;0.80;;;12.40;99.90;;;;;;4999231;28;20275;-59
2021/10/04 01:58:16;;;;;;;0.93;0.90;;;12.20;99.90;;;;;;4998818;28;20624;-58
2021/10/04 02:00:42;;;;;;;2.03;1.00;;;12.10;99.90;;;;;;5011763;28;20172;-58
2021/10/04 02:03:09;;;;;;;1.13;1.07;;;12.00;99.90;;;;;;4993345;28;20193;-60
2021/10/04 02:05:35;;;;;;;1.03;0.93;;;12.00;99.90;;;;;;4998083;28;20466;-59
2021/10/04 02:08:01;;;;;;;5.30;1.00;;;11.90;99.90;;;;;;4995160;28;20873;-58
2021/10/04 02:10:32;;;;;;;1.17;0.90;;;11.90;99.90;;;;;;5010883;28;20295;-59
2021/10/04 02:13:03;;;;;;;1.33;1.10;;;11.90;99.90;;;;;;5011130;28;20563;-59
2021/10/04 02:15:29;;;;;;;0.90;0.90;;;11.80;99.90;;;;;;5009181;28;20427;-58
2021/10/04 02:17:55;;;;;;;0.90;0.90;;;11.80;99.90;;;;;;5010060;28;20419;-59
2021/10/04 02:20:24;;;;;;;1.03;0.93;;;11.80;99.90;;;;;;4993129;28;20452;-60
2021/10/04 02:22:51;;;;;;;5.17;1.13;;;11.70;99.90;;;;;;5003392;28;20448;-60
2021/10/04 02:25:17;;;;;;;1.90;1.30;;;11.70;99.90;;;;;;5011749;28;20906;-59
2021/10/04 02:27:43;;;;;;;0.90;0.90;;;11.70;99.90;;;;;;5009375;28;20532;-58
2021/10/04 02:30:20;;;;;;;0.90;0.90;;;11.70;99.90;;;;;;5010703;28;20939;-59
2021/10/04 02:32:45;;;;;;;1.83;0.90;;;11.70;99.90;;;;;;5002853;28;20522;-60
2021/10/04 02:35:11;;;;;;;6.63;1.00;;;11.70;99.90;;;;;;5008460;28;20446;-60
2021/10/04 02:37:38;;;;;;;1.47;1.00;;;11.70;99.90;;;;;;5005812;28;20189;-58
2021/10/04 02:40:05;;;;;;;1.17;1.10;;;11.80;99.90;;;;;;5010760;28;20200;-60
2021/10/04 02:42:32;;;;;;;1.27;1.17;;;11.70;99.90;;;;;;5002927;28;20472;-60
2021/10/04 02:44:58;;;;;;;1.10;1.00;;;11.70;99.90;;;;;;4998874;28;20431;-58
2021/10/04 02:47:23;;;;;;;1.07;1.03;;;11.70;99.90;;;;;;5007268;28;20496;-59
2021/10/04 02:49:49;;;;;;;1.10;1.00;;;11.70;99.90;;;;;;5008738;28;20212;-59
2021/10/04 02:52:17;;;;;;;1.10;1.10;;;11.70;99.90;;;;;;5008229;28;20691;-60
2021/10/04 02:54:43;;;;;;;1.50;1.10;;;11.70;99.90;;;;;;5007024;28;20208;-59
2021/10/04 02:57:08;;;;;;;2.10;1.43;;;11.70;99.90;;;;;;5010332;28;20959;-58
2021/10/04 02:59:34;;;;;;;1.40;1.00;;;11.70;99.90;;;;;;5005529;28;20440;-58
2021/10/04 03:02:00;;;;;;;1.57;1.00;;;11.70;99.90;;;;;;5009277;28;20258;-60
2021/10/04 03:04:25;;;;;;;4.53;1.10;;;11.60;99.90;;;;;;5007368;28;20184;-59
2021/10/04 03:06:51;;;;;;;1.20;1.07;;;11.60;99.90;;;;;;5003726;28;20188;-59
2021/10/04 03:11:44;;;;;;;2.00;0.90;;;11.60;99.90;;;;;;5004724;28;20223;-59
2021/10/04 03:14:10;;;;;;;1.47;1.03;;;11.60;99.90;;;;;;5009126;28;20979;-59
2021/10/04 03:16:36;;;;;;;1.17;1.10;;;11.60;99.90;;;;;;5008607;28;20173;-59
2021/10/04 03:19:01;;;;;;;3.73;1.00;;;11.60;99.90;;;;;;5008368;28;20188;-59
2021/10/04 03:21:27;;;;;;;1.17;1.07;;;11.50;99.90;;;;;;4992034;28;20192;-60
2021/10/04 03:23:52;;;;;;;4.50;1.23;;;11.50;99.90;;;;;;4988535;28;20191;-60
2021/10/04 03:26:18;;;;;;;3.93;1.07;;;11.50;99.90;;;;;;4994973;28;20196;-60
2021/10/04 03:28:44;;;;;;;1.00;1.00;;;11.50;99.90;;;;;;4999520;28;20725;-59
2021/10/04 03:31:10;;;;;;;1.03;0.90;;;11.50;99.90;;;;;;4990113;28;20201;-59
2021/10/04 03:33:36;;;;;;;1.10;1.00;;;11.50;99.90;;;;;;4998526;28;20331;-59
2021/10/04 03:36:02;;;;;;;1.47;1.10;;;11.50;99.90;;;;;;4996577;28;20185;-59
2021/10/04 03:38:27;;;;;;;3.67;1.00;;;11.50;99.90;;;;;;4989826;28;20789;-58
2021/10/04 03:40:53;;;;;;;1.50;1.37;;;11.50;99.90;;;;;;4990389;28;20240;-59
2021/10/04 03:43:18;;;;;;;2.00;1.20;;;11.50;99.90;;;;;;4989087;28;20185;-59
2021/10/04 03:45:44;;;;;;;1.20;1.10;;;11.50;99.90;;;;;;4999841;28;20203;-59
2021/10/04 03:48:12;;;;;;;3.53;1.20;;;11.50;99.90;;;;;;4988705;28;20180;-59
2021/10/04 03:50:38;;;;;;;1.00;1.00;;;11.50;99.90;;;;;;4991030;28;20232;-59
2021/10/04 03:53:04;;;;;;;1.50;1.40;;;11.50;99.90;;;;;;4989841;28;20494;-60
2021/10/04 03:55:30;;;;;;;0.90;0.90;;;11.50;99.90;;;;;;4987967;28;20239;-59
2021/10/04 03:57:55;;;;;;;1.23;1.13;;;11.50;99.90;;;;;;4981419;28;20212;-58
2021/10/04 04:00:23;;;;;;;1.27;1.17;;;11.40;99.90;;;;;;5001384;28;20193;-57
2021/10/04 04:02:49;;;;;;;0.90;0.90;;;11.40;99.90;;;;;;4989140;28;20177;-59
2021/10/04 04:05:15;;;;;;;1.70;1.40;;;11.40;99.90;;;;;;4998088;28;20486;-59
2021/10/04 04:07:42;;;;;;;1.67;1.20;;;11.40;99.90;;;;;;4983486;28;20521;-58
2021/10/04 04:10:09;;;;;;;2.20;1.63;;;11.40;99.90;;;;;;4987319;28;20543;-59
2021/10/04 04:12:35;;;;;;;1.90;1.70;;;11.40;99.90;;;;;;4983108;28;21121;-59
2021/10/04 04:15:01;;;;;;;2.67;1.40;;;11.40;99.90;;;;;;4979840;28;20443;-59
2021/10/04 04:17:27;;;;;;;1.27;1.00;;;11.50;99.90;;;;;;4984833;28;20432;-59
2021/10/04 04:19:52;;;;;;;1.00;0.90;;;11.40;99.90;;;;;;4987786;28;20451;-61
2021/10/04 04:22:18;;;;;;;1.20;1.10;;;11.40;99.90;;;;;;4986215;28;20554;-59
2021/10/04 04:24:44;;;;;;;1.10;1.10;;;11.40;99.90;;;;;;4989909;28;20181;-59
2021/10/04 04:27:10;;;;;;;1.40;1.30;;;11.40;99.90;;;;;;4985059;28;20256;-59
2021/10/04 04:29:37;;;;;;;1.10;1.00;;;11.30;99.90;;;;;;4998422;28;20288;-59
2021/10/04 04:32:05;;;;;;;1.37;1.30;;;11.30;99.90;;;;;;4982155;28;20424;-58
2021/10/04 04:34:31;;;;;;;1.27;1.17;;;11.30;99.90;;;;;;4981385;28;20432;-60
2021/10/04 04:36:57;;;;;;;1.00;1.00;;;11.30;99.90;;;;;;4987782;28;22262;-58
2021/10/04 04:39:23;;;;;;;1.17;1.00;;;11.30;99.90;;;;;;4991744;28;20781;-59
2021/10/04 04:41:48;;;;;;;0.90;0.90;;;11.30;99.90;;;;;;4998159;28;20439;-59
2021/10/04 04:44:14;;;;;;;2.77;1.50;;;11.40;99.90;;;;;;5000115;28;20642;-59
2021/10/04 04:46:40;;;;;;;1.10;1.00;;;11.40;99.90;;;;;;4978630;28;20181;-59
2021/10/04 04:49:05;;;;;;;1.33;1.17;;;11.40;99.90;;;;;;4983848;28;20235;-58
2021/10/04 04:51:31;;;;;;;1.87;1.10;;;11.40;99.90;;;;;;4983171;28;20522;-59
2021/10/04 04:53:57;;;;;;;1.33;1.23;;;11.40;99.90;;;;;;4980442;28;20719;-60
2021/10/04 04:56:22;;;;;;;1.10;1.00;;;11.40;99.90;;;;;;4984916;28;20177;-60
2021/10/04 04:58:48;;;;;;;1.20;1.10;;;11.40;99.90;;;;;;4983779;28;20232;-59
2021/10/04 05:01:14;;;;;;;1.33;1.20;;;11.30;99.90;;;;;;4981836;28;20279;-57
2021/10/04 05:03:40;;;;;;;1.00;0.90;;;11.30;99.90;;;;;;4997706;28;20843;-58
2021/10/04 05:06:05;;;;;;;1.20;1.10;;;11.30;99.90;;;;;;4987641;28;20436;-59
2021/10/04 05:08:31;;;;;;;1.40;1.30;;;11.30;99.90;;;;;;4992563;28;20204;-60
2021/10/04 05:10:56;;;;;;;1.77;1.40;;;11.30;99.90;;;;;;4981086;28;20228;-59
2021/10/04 05:13:22;;;;;;;1.20;1.10;;;11.20;99.90;;;;;;4985268;28;21924;-60
2021/10/04 05:15:48;;;;;;;1.30;1.20;;;11.20;99.90;;;;;;4990816;28;20184;-59
2021/10/04 05:18:13;;;;;;;1.00;1.00;;;11.20;99.90;;;;;;4988227;28;20169;-63
2021/10/04 05:20:39;;;;;;;1.57;1.40;;;11.20;99.90;;;;;;4986021;28;20203;-62
2021/10/04 05:23:05;;;;;;;1.60;1.50;;;11.20;99.90;;;;;;4994846;28;20237;-61
2021/10/04 05:25:31;;;;;;;1.40;1.30;;;11.20;99.90;;;;;;5001832;28;20256;-60
2021/10/04 05:27:57;;;;;;;2.17;1.80;;;11.20;99.90;;;;;;4991677;28;20193;-60
2021/10/04 05:30:23;;;;;;;1.90;1.70;;;11.20;99.90;;;;;;5006728;28;20444;-60
2021/10/04 05:32:48;;;;;;;1.80;1.70;;;11.20;99.90;;;;;;4990853;28;20199;-60
2021/10/04 05:35:15;;;;;;;1.97;1.87;;;11.20;99.90;;;;;;4985600;28;20248;-60
2021/10/04 05:37:41;;;;;;;2.70;1.97;;;11.20;99.90;;;;;;4987175;28;20184;-60
2021/10/04 05:40:07;;;;;;;2.40;2.00;;;11.20;99.90;;;;;;5003908;28;20991;-60
2021/10/04 05:42:33;;;;;;;2.40;1.87;;;11.20;99.90;;;;;;4990143;28;20435;-59
2021/10/04 05:45:00;;;;;;;2.37;1.43;;;11.30;99.90;;;;;;4990049;28;20508;-59
2021/10/04 05:47:26;;;;;;;1.40;1.30;;;11.30;99.90;;;;;;4989821;28;20750;-60
2021/10/04 05:49:52;;;;;;;1.60;1.50;;;11.30;99.90;;;;;;4989961;28;20443;-59
2021/10/04 05:52:18;;;;;;;2.10;1.90;;;11.30;99.90;;;;;;4985379;28;20205;-61
2021/10/04 05:54:44;;;;;;;2.27;1.47;;;11.20;99.90;;;;;;4985458;28;20799;-59
2021/10/04 05:57:10;;;;;;;2.37;1.80;;;11.30;99.90;;;;;;4989101;28;20906;-60
2021/10/04 05:59:35;;;;;;;2.90;2.70;;;11.20;99.90;;;;;;4998792;28;20285;-60
2021/10/04 06:02:01;;;;;;;1.87;1.77;;;11.20;99.90;;;;;;4983820;28;20185;-60
2021/10/04 06:04:27;;;;;;;2.23;1.60;;;11.20;99.90;;;;;;4986077;28;20192;-60
2021/10/04 06:06:53;;;;;;;2.90;1.47;;;11.20;99.90;;;;;;4989282;28;20787;-60
2021/10/04 06:09:18;;;;;;;2.20;1.53;;;11.20;99.90;;;;;;4995952;28;20177;-61
2021/10/04 06:11:44;;;;;;;2.10;1.20;;;11.20;99.90;;;;;;5001796;28;20783;-60
2021/10/04 06:14:10;;;;;;;1.20;1.10;;;11.20;99.90;;;;;;4991269;28;20677;-60
2021/10/04 06:16:35;;;;;;;2.60;2.40;;;11.30;99.90;;;;;;5003164;28;20228;-60
2021/10/04 06:19:02;;;;;;;1.83;1.50;;;11.20;99.90;;;;;;4991395;28;20173;-59
2021/10/04 06:21:27;;;;;;;2.07;1.60;;;11.20;99.90;;;;;;4992199;28;20197;-59
2021/10/04 06:23:53;;;;;;;1.67;1.30;;;11.20;99.90;;;;;;4994756;28;20979;-60
2021/10/04 06:26:19;;;;;;;1.83;1.20;;;11.20;99.90;;;;;;4991549;28;20274;-60
2021/10/04 06:28:44;;;;;;;2.30;1.23;;;11.30;99.90;;;;;;4990736;28;20184;-60
2021/10/04 06:31:10;;;;;;;1.20;1.17;;;11.30;99.90;;;;;;4991686;28;20260;-60
2021/10/04 06:33:36;;;;;;;1.57;1.10;;;11.30;99.90;;;;;;4990863;28;20580;-58
2021/10/04 06:36:02;;;;;;;1.30;1.20;;;11.20;99.90;;;;;;5008090;28;20640;-60
2021/10/04 06:38:27;;;;;;;1.37;1.27;;;11.20;99.90;;;;;;5006166;28;20316;-60
2021/10/04 06:40:53;;;;;;;2.50;1.10;;;11.20;99.90;;;;;;4990831;28;20527;-60
2021/10/04 06:43:19;;;;;;;1.33;1.10;;;11.20;99.90;;;;;;4990405;28;20173;-59
2021/10/04 06:45:44;;;;;;;1.60;1.50;;;11.20;99.90;;;;;;4990837;28;20662;-60
2021/10/04 06:48:10;;;;;;;1.40;1.10;;;11.20;99.90;;;;;;4990772;28;20196;-61
2021/10/04 06:50:36;;;;;;;1.77;1.23;;;11.20;99.90;;;;;;4984734;28;20298;-59
2021/10/04 06:53:02;;;;;;;2.23;1.00;;;11.20;99.90;;;;;;4971375;28;20233;-60
2021/10/04 06:55:27;;;;;;;1.10;1.00;;;11.20;99.90;;;;;;4987196;28;20455;-59
2021/10/04 06:57:53;;;;;;;2.07;1.10;;;11.20;99.90;;;;;;4999100;28;20201;-59
2021/10/04 07:00:20;;;;;;;1.23;0.97;;;11.20;99.90;;;;;;4990898;28;20210;-60
2021/10/04 07:02:47;;;;;;;2.70;1.53;;;11.30;99.90;;;;;;4996714;28;20673;-59
2021/10/04 07:05:13;;;;;;;2.17;1.20;;;11.30;99.90;;;;;;4989561;28;20443;-60
2021/10/04 07:07:39;;;;;;;1.07;1.00;;;11.30;99.90;;;;;;4979555;28;20454;-60
2021/10/04 07:10:05;;;;;;;4.50;1.23;;;11.30;99.90;;;;;;4988731;28;20208;-60
2021/10/04 07:12:30;;;;;;;1.20;1.10;;;11.30;99.90;;;;;;4976570;28;20190;-59
2021/10/04 07:14:56;;;;;;;1.20;1.10;;;11.30;99.90;;;;;;4999646;28;20444;-60
2021/10/04 07:17:22;;;;;;;3.00;2.03;;;11.30;99.90;;;;;;4980735;28;20317;-59
2021/10/04 07:19:48;;;;;;;3.43;2.20;;;11.30;99.90;;;;;;4990099;28;20203;-60
2021/10/04 07:22:14;;;;;;;2.47;1.80;;;11.30;99.90;;;;;;4990265;28;20432;-60
2021/10/04 07:24:40;;;;;;;8.93;2.13;;;11.40;99.90;;;;;;4984652;28;20182;-60
2021/10/04 07:27:06;;;;;;;1.80;1.50;;;11.40;99.90;;;;;;5002443;28;20611;-60
2021/10/04 07:29:32;;;;;;;1.67;1.57;;;11.40;99.90;;;;;;4990180;28;20751;-60
2021/10/04 07:31:58;;;;;;;2.07;1.20;;;11.40;99.90;;;;;;4990493;28;20420;-59
2021/10/04 07:34:23;;;;;;;1.67;1.57;;;11.40;99.90;;;;;;4998374;28;20463;-60
2021/10/04 07:36:49;;;;;;;2.67;1.50;;;11.40;99.90;;;;;;4987177;28;20189;-60
2021/10/04 07:39:15;;;;;;;1.50;1.40;;;11.40;99.90;;;;;;4972538;28;20166;-60
2021/10/04 07:41:43;;;;;;;1.43;1.33;;;11.40;99.90;;;;;;4984411;28;20178;-59
2021/10/04 07:44:09;;;;;;;1.50;1.40;;;11.40;99.90;;;;;;4971020;28;20484;-60
2021/10/04 07:46:35;;;;;;;1.30;1.20;;;11.40;99.90;;;;;;4988956;28;20433;-59
2021/10/04 07:49:01;;;;;;;3.30;2.50;;;11.40;99.90;;;;;;5004733;28;20436;-59
2021/10/04 07:51:27;;;;;;;2.97;2.30;;;11.50;99.90;;;;;;4989825;28;20219;-59
2021/10/04 07:53:52;;;;;;;2.47;2.27;;;11.40;99.90;;;;;;4989713;28;20510;-60
2021/10/04 07:56:19;;;;;;;1.70;1.60;;;11.40;99.90;;;;;;4989805;28;20169;-59
2021/10/04 07:58:45;;;;;;;1.60;1.50;;;11.40;99.90;;;;;;4977602;28;20181;-60
2021/10/04 08:01:12;;;;;;;2.07;1.80;;;11.40;99.90;;;;;;4989933;28;20778;-60
2021/10/04 08:03:38;;;;;;;1.93;1.83;;;11.40;99.90;;;;;;4989959;28;20180;-60
2021/10/04 08:06:03;;;;;;;2.00;1.40;;;11.40;99.90;;;;;;4991744;28;20503;-60
2021/10/04 08:08:29;;;;;;;1.40;1.20;;;11.40;99.90;;;;;;4985386;28;20185;-60
2021/10/04 08:10:55;;;;;;;1.43;1.33;;;11.40;99.90;;;;;;5001529;28;20248;-59
2021/10/04 08:13:21;;;;;;;1.30;1.20;;;11.40;99.90;;;;;;4987340;28;20256;-60
2021/10/04 08:15:46;;;;;;;3.13;1.63;;;11.40;99.90;;;;;;4983974;28;20181;-60
2021/10/04 08:18:12;;;;;;;1.57;1.30;;;11.40;99.90;;;;;;5002814;28;20226;-60
2021/10/04 08:20:38;;;;;;;1.77;1.40;;;11.40;99.90;;;;;;4990152;28;20189;-60
2021/10/04 08:23:03;;;;;;;1.60;1.50;;;11.40;99.90;;;;;;5008943;28;20680;-60
2021/10/04 08:25:30;;;;;;;3.07;1.30;;;11.40;99.90;;;;;;4989382;28;20673;-60
2021/10/04 08:27:55;;;;;;;1.80;1.70;;;11.50;99.90;;;;;;4994296;28;20184;-59
2021/10/04 08:30:21;;;;;;;1.50;1.40;;;11.50;99.90;;;;;;4988185;28;20448;-60
2021/10/04 08:32:47;;;;;;;2.27;1.67;;;11.50;99.90;;;;;;4983449;28;20201;-60
2021/10/04 08:35:13;;;;;;;1.70;1.60;;;11.60;99.90;;;;;;4981529;28;20227;-60
2021/10/04 08:37:39;;;;;;;2.60;1.60;;;11.60;99.90;;;;;;4993561;28;20713;-59
2021/10/04 08:40:08;;;;;;;1.93;1.70;;;11.60;99.90;;;;;;4993108;28;20563;-60
2021/10/04 08:42:34;;;;;;;2.03;1.40;;;11.70;99.90;;;;;;4993222;28;20492;-60
2021/10/04 08:45:00;;;;;;;1.30;1.20;;;11.70;99.90;;;;;;4996470;28;20499;-60
2021/10/04 08:47:27;;;;;;;1.60;1.50;;;11.70;99.90;;;;;;4990783;28;20459;-60
2021/10/04 08:49:53;;;;;;;1.77;1.67;;;11.80;99.90;;;;;;4997361;28;20659;-59
2021/10/04 08:52:20;;;;;;;1.30;1.20;;;11.80;99.90;;;;;;5002926;28;20820;-59
2021/10/04 08:54:46;;;;;;;1.47;1.27;;;11.80;99.90;;;;;;4992127;28;20404;-60
2021/10/04 08:57:13;;;;;;;1.53;1.27;;;11.80;99.90;;;;;;4993612;28;20965;-60
2021/10/04 08:59:39;;;;;;;1.60;1.50;;;11.80;99.90;;;;;;4994098;28;20432;-60
2021/10/04 09:02:21;;;;;;;1.53;1.40;;;11.80;99.90;;;;;;4992077;28;20486;-66
2021/10/04 09:05:07;;;;;;;2.27;1.30;;;11.80;99.90;;;;;;4993191;28;20436;-60
2021/10/04 09:07:54;;;;;;;1.43;1.00;;;11.80;99.90;;;;;;4981326;28;20421;-59
2021/10/04 09:10:23;;;;;;;1.40;1.30;;;11.80;99.90;;;;;;4974631;28;21129;-59
2021/10/04 09:13:00;;;;;;;1.30;1.20;;;11.80;99.90;;;;;;4974868;28;20467;-59
2021/10/04 09:15:31;;;;;;;1.17;1.10;;;11.80;99.90;;;;;;4990320;28;20435;-63
2021/10/04 09:18:04;;;;;;;1.10;1.00;;;11.80;99.90;;;;;;4994490;28;20418;-58
2021/10/04 09:20:50;;;;;;;2.40;1.30;;;11.80;99.90;;;;;;4996333;28;20471;-59
2021/10/04 09:23:45;;;;;;;1.40;1.30;;;11.80;99.90;;;;;;4977761;28;20435;-59
2021/10/04 09:26:26;;;;;;;1.20;1.10;;;11.80;99.90;;;;;;5006505;28;20506;-60
2021/10/04 09:29:09;;;;;;;3.80;1.20;;;11.80;99.90;;;;;;5002043;28;20432;-59
2021/10/04 09:31:38;;;;;;;1.47;1.37;;;11.80;99.90;;;;;;4973391;28;20476;-60
2021/10/04 09:34:08;;;;;;;1.40;1.40;;;11.80;99.90;;;;;;4974346;28;20503;-60
2021/10/04 09:36:36;;;;;;;1.97;1.43;;;11.80;99.90;;;;;;5008427;28;20431;-59
2021/10/04 09:39:24;;;;;;;1.43;1.33;;;11.80;99.90;;;;;;4990205;28;20455;-59
2021/10/04 09:42:00;;;;;;;1.40;1.30;;;11.70;99.90;;;;;;4977847;28;20512;-59
2021/10/04 09:44:39;;;;;;;6.77;2.57;;;11.70;99.90;;;;;;4988188;28;20440;-59
2021/10/04 09:47:13;;;;;;;2.63;1.53;;;11.80;99.90;;;;;;5009837;28;20431;-60
2021/10/04 09:50:11;;;;;;;1.20;1.10;;;11.80;99.90;;;;;;4991720;28;20467;-60
2021/10/04 09:53:00;;;;;;;1.20;1.10;;;11.80;99.90;;;;;;4972813;28;20599;-59
2021/10/04 09:55:36;;;;;;;1.40;1.30;;;11.90;99.90;;;;;;4990619;28;20432;-60
2021/10/04 09:58:14;;;;;;;1.83;1.00;;;11.90;99.90;;;;;;4995898;28;20951;-59
2021/10/04 10:00:48;;;;;;;1.30;1.20;;;11.90;99.90;;;;;;4992342;28;20523;-61
2021/10/04 10:03:17;;;;;;;1.03;1.03;;;11.90;99.90;;;;;;4990897;28;20431;-59
2021/10/04 10:05:46;;;;;;;1.27;1.17;;;11.90;99.90;;;;;;4992398;28;20452;-59
2021/10/04 10:08:16;;;;;;;0.90;0.90;;;11.90;99.90;;;;;;4992702;28;20446;-58
2021/10/04 10:10:44;;;;;;;1.83;1.10;;;12.00;99.90;;;;;;5004329;28;20534;-58
2021/10/04 10:13:14;;;;;;;1.00;1.00;;;12.00;99.90;;;;;;4991164;28;20821;-61
2021/10/04 10:15:42;;;;;;;1.00;1.00;;;12.00;99.90;;;;;;4978959;28;20413;-59
2021/10/04 10:18:23;;;;;;;2.60;1.13;;;12.10;99.90;;;;;;4972637;28;20525;-59
2021/10/04 10:20:58;;;;;;;1.03;1.03;;;12.10;99.90;;;;;;4991732;28;20856;-59
2021/10/04 10:23:45;;;;;;;1.20;1.10;;;12.10;99.90;;;;;;4996901;28;20473;-59
2021/10/04 10:26:41;;;;;;;1.10;1.00;;;12.20;99.90;;;;;;4992287;28;20884;-60
2021/10/04 10:29:13;;;;;;;1.00;1.00;;;12.30;99.90;;;;;;4993516;28;20471;-59
2021/10/04 10:31:50;;;;;;;2.10;1.43;;;12.30;99.90;;;;;;4989698;28;20501;-61
2021/10/04 10:34:34;;;;;;;1.63;1.17;;;12.40;99.90;;;;;;4999164;28;20460;-61
2021/10/04 10:37:10;;;;;;;2.93;2.27;;;12.30;99.90;;;;;;4995200;28;20454;-59
2021/10/04 10:39:42;;;;;;;2.20;1.57;;;12.30;99.90;;;;;;5008984;28;20443;-60
2021/10/04 10:42:21;;;;;;;1.20;1.10;;;12.30;99.90;;;;;;4997042;28;20424;-60
2021/10/04 10:44:56;;;;;;;1.10;1.00;;;12.30;99.90;;;;;;4990818;28;20963;-60
2021/10/04 10:47:36;;;;;;;3.90;1.20;;;12.40;99.90;;;;;;4991079;28;20461;-60
2021/10/04 10:50:11;;;;;;;1.87;1.00;;;12.40;99.90;;;;;;4989431;28;20955;-60
2021/10/04 10:52:38;;;;;;;1.43;1.03;;;12.50;99.90;;;;;;5025609;28;20454;-60
2021/10/04 10:55:23;;;;;;;1.20;1.10;;;12.60;99.90;;;;;;4992351;28;20978;-60
2021/10/04 10:57:52;;;;;;;1.10;1.00;;;12.70;99.90;;;;;;4987983;28;20415;-59
2021/10/04 11:00:39;;;;;;;1.90;1.40;;;12.80;99.90;;;;;;4990508;28;20444;-60
2021/10/04 11:03:13;;;;;;;3.20;0.97;;;12.90;99.90;;;;;;4985617;28;20518;-58
2021/10/04 11:05:39;;;;;;;3.17;1.70;;;13.00;99.90;;;;;;4984940;28;20431;-58
2021/10/04 11:08:11;;;;;;;1.87;1.27;;;13.00;99.90;;;;;;4983000;28;20497;-58
2021/10/04 11:10:52;;;;;;;1.50;1.40;;;13.10;99.90;;;;;;5005221;28;20343;-59
2021/10/04 11:13:20;;;;;;;2.20;1.90;;;13.10;99.90;;;;;;4993719;28;20492;-62
2021/10/04 11:15:46;;;;;;;1.80;1.70;;;13.10;99.90;;;;;;4981154;28;20441;-59
2021/10/04 11:18:12;;;;;;;1.30;1.20;;;13.20;99.90;;;;;;4988128;28;20429;-59
2021/10/04 11:20:38;;;;;;;1.37;1.27;;;13.10;99.90;;;;;;4995404;28;20203;-58
2021/10/04 11:23:18;;;;;;;1.40;1.30;;;13.10;99.90;;;;;;4988201;28;20283;-61
2021/10/04 11:25:49;;;;;;;1.10;1.00;;;13.10;99.90;;;;;;5002489;28;20439;-57
2021/10/04 11:28:17;;;;;;;1.30;1.20;;;13.10;99.90;;;;;;4988595;28;20739;-60
2021/10/04 11:31:00;;;;;;;2.50;1.27;;;13.10;99.90;;;;;;4995503;28;20467;-61
2021/10/04 11:33:29;;;;;;;2.60;2.30;;;13.00;99.90;;;;;;4988772;28;20455;-59
2021/10/04 11:35:59;;;;;;;2.30;2.10;;;13.00;99.90;;;;;;4989283;28;20423;-60
2021/10/04 11:38:26;;;;;;;2.23;1.80;;;13.00;99.90;;;;;;4986305;28;20420;-60
2021/10/04 11:40:52;;;;;;;1.57;1.40;;;13.00;99.90;;;;;;4992329;28;20460;-60
2021/10/04 11:43:19;;;;;;;3.57;2.00;;;13.00;99.90;;;;;;5005535;28;20510;-61
2021/10/04 11:45:48;;;;;;;1.77;1.63;;;13.00;99.90;;;;;;4990807;28;20845;-60
2021/10/04 11:48:31;;;;;;;1.60;1.43;;;13.00;99.90;;;;;;4985855;28;21156;-59
2021/10/04 11:50:58;;;;;;;1.27;1.17;;;13.00;99.90;;;;;;5002025;28;20607;-61
2021/10/04 11:53:26;;;;;;;1.40;1.30;;;13.10;99.90;;;;;;4993864;28;20466;-58
2021/10/04 11:56:00;;;;;;;1.40;1.30;;;13.10;99.90;;;;;;4989918;28;20527;-60
2021/10/04 11:58:26;;;;;;;1.30;1.20;;;13.10;99.90;;;;;;5004394;28;20446;-60
2021/10/04 12:00:52;;;;;;;3.50;1.73;;;13.10;99.90;;;;;;4988988;28;20933;-59
2021/10/04 12:03:30;;;;;;;2.93;1.50;;;13.10;99.90;;;;;;4990762;28;20994;-60
2021/10/04 12:05:58;;;;;;;1.37;1.27;;;13.10;99.90;;;;;;5002047;28;20969;-59
2021/10/04 12:08:25;;;;;;;1.77;1.37;;;13.00;99.90;;;;;;4994533;28;20435;-60
2021/10/04 12:10:56;;;;;;;3.57;1.37;;;13.00;99.90;;;;;;4998254;28;20553;-60
2021/10/04 12:13:28;;;;;;;2.63;1.37;;;13.00;99.90;;;;;;4998477;28;20462;-60
2021/10/04 12:15:59;;;;;;;1.40;1.00;;;13.00;99.90;;;;;;5010521;28;20448;-59
2021/10/04 12:18:31;;;;;;;2.47;1.90;;;13.10;99.90;;;;;;4996960;28;20434;-62
2021/10/04 12:21:22;;;;;;;1.30;1.20;;;13.10;99.90;;;;;;5008935;28;20757;-59
2021/10/04 12:24:24;;;;;;;1.40;1.30;;;13.10;99.90;;;;;;4996526;28;20435;-59
2021/10/04 12:26:59;;;;;;;1.03;1.03;;;13.10;99.90;;;;;;4978089;28;20455;-59
2021/10/04 12:29:37;;;;;;;2.10;1.27;;;13.00;99.90;;;;;;4993554;28;20498;-59
2021/10/04 12:32:23;;;;;;;0.90;0.90;;;13.00;99.90;;;;;;4994790;28;20451;-59
2021/10/04 12:35:25;;;;;;;1.77;1.40;;;12.90;99.90;;;;;;4991864;28;20853;-60
2021/10/04 12:37:58;;;;;;;2.20;1.40;;;12.90;99.90;;;;;;4985382;28;20977;-61
2021/10/04 12:40:30;;;;;;;2.37;2.10;;;12.90;99.90;;;;;;5001424;28;20460;-61
2021/10/04 12:43:04;;;;;;;4.23;2.07;;;12.90;99.90;;;;;;5005515;28;20483;-60
2021/10/04 12:45:31;;;;;;;2.77;2.53;;;12.90;99.90;;;;;;4985648;28;20571;-61
2021/10/04 12:48:06;;;;;;;1.80;1.70;;;12.90;99.90;;;;;;4990669;28;20994;-61
2021/10/04 12:50:38;;;;;;;1.90;1.67;;;12.90;99.90;;;;;;5008326;28;20466;-60
2021/10/04 12:53:21;;;;;;;1.90;1.80;;;12.90;99.90;;;;;;4989647;28;21013;-60
2021/10/04 12:55:47;;;;;;;2.80;1.70;;;12.90;99.90;;;;;;4988615;28;20639;-60
2021/10/04 12:58:13;;;;;;;2.23;1.70;;;12.90;99.90;;;;;;4990964;28;20860;-61